createdAt,value
2022-12-23T00:03:55.790Z,58.63
2022-12-23T00:12:16.142Z,56.90
2022-12-23T00:20:21.709Z,59.38
2022-12-23T00:28:31.110Z,58.17
2022-12-23T00:36:47.251Z,55.33
2022-12-23T00:45:16.054Z,55.42
2022-12-23T00:53:21.822Z,50.33
2022-12-23T01:01:42.970Z,50.55
2022-12-23T01:09:48.726Z,49.03
2022-12-23T01:17:56.646Z,47.03
2022-12-23T01:26:03.027Z,46.33
2022-12-23T01:34:11.006Z,47.38
2022-12-23T01:42:29.744Z,45.30
2022-12-23T01:50:41.434Z,46.53
2022-12-23T01:58:51.244Z,45.47
2022-12-23T02:07:12.197Z,45.70
2022-12-23T02:15:46.485Z,45.70
2022-12-23T02:24:27.605Z,45.40
2022-12-23T02:32:45.887Z,44.25
2022-12-23T02:41:01.860Z,42.25
2022-12-23T02:49:15.435Z,42.20
2022-12-23T02:57:24.914Z,42.20
2022-12-23T03:05:39.228Z,39.88
2022-12-23T03:14:08.980Z,41.00
2022-12-23T03:22:27.585Z,40.47
2022-12-23T03:30:34.096Z,38.97
2022-12-23T03:38:44.347Z,40.10
2022-12-23T03:46:53.319Z,41.10
2022-12-23T03:55:05.028Z,44.00
2022-12-23T04:03:20.655Z,43.90
2022-12-23T04:11:28.867Z,44.55
2022-12-23T04:19:35.709Z,44.80
2022-12-23T04:27:44.138Z,42.78
2022-12-23T04:35:49.586Z,47.42
2022-12-23T04:43:59.869Z,48.63
2022-12-23T04:52:05.190Z,49.20
2022-12-23T05:00:14.594Z,46.60
2022-12-23T05:08:20.045Z,49.30
2022-12-23T05:16:28.382Z,46.47
2022-12-23T05:24:33.994Z,44.28
2022-12-23T05:32:42.229Z,46.53
2022-12-23T05:40:47.654Z,61.00
2022-12-23T05:48:55.725Z,54.47
2022-12-23T05:57:01.000Z,52.67
2022-12-23T06:05:09.841Z,52.63
2022-12-23T06:13:18.042Z,54.35
2022-12-23T06:21:26.339Z,51.97
2022-12-23T06:29:31.801Z,50.60
2022-12-23T06:37:39.875Z,54.47
2022-12-23T06:45:50.302Z,57.50
2022-12-23T06:53:58.213Z,55.90
2022-12-23T07:02:03.724Z,52.72
2022-12-23T07:10:13.053Z,57.45
2022-12-23T07:18:18.455Z,54.65
2022-12-23T07:26:26.530Z,52.75
2022-12-23T07:34:32.067Z,58.08
2022-12-23T07:42:46.210Z,58.90
2022-12-23T07:50:52.263Z,56.53
2022-12-23T07:59:02.414Z,53.55
2022-12-23T08:07:08.760Z,46.03
2022-12-23T08:15:16.937Z,40.22
2022-12-23T08:23:24.914Z,40.88
2022-12-23T08:31:33.927Z,44.72
2022-12-23T08:39:39.555Z,45.85
2022-12-23T08:47:47.560Z,50.17
2022-12-23T08:55:52.943Z,51.85
2022-12-23T09:04:01.129Z,44.33
2022-12-23T09:12:07.652Z,43.72
2022-12-23T09:20:16.674Z,39.25
2022-12-23T09:28:22.113Z,36.35
2022-12-23T09:36:30.285Z,37.63
2022-12-23T09:44:56.203Z,35.70
2022-12-23T09:53:08.661Z,34.22
2022-12-23T10:01:25.072Z,35.60
2022-12-23T10:09:37.751Z,33.35
2022-12-23T10:17:45.536Z,29.03
2022-12-23T10:25:56.214Z,31.13
2022-12-23T10:34:10.413Z,31.98
2022-12-23T10:42:26.062Z,31.60
2022-12-23T10:50:46.326Z,30.33
2022-12-23T10:58:58.720Z,29.10
2022-12-23T11:07:42.979Z,33.33
2022-12-23T11:15:39.500Z,34.40
2022-12-23T11:23:44.931Z,34.72
2022-12-23T11:31:56.014Z,32.47
2022-12-23T11:40:01.501Z,33.15
2022-12-23T11:48:29.411Z,29.15
2022-12-23T11:56:40.566Z,26.63
2022-12-23T12:04:58.441Z,26.45
2022-12-23T12:13:06.807Z,26.50
2022-12-23T12:21:20.046Z,25.25
2022-12-23T12:29:31.601Z,26.52
2022-12-23T12:37:46.069Z,33.72
2022-12-23T12:45:55.698Z,31.80
2022-12-23T12:54:24.086Z,27.30
2022-12-23T13:02:47.296Z,28.40
2022-12-23T13:11:01.084Z,29.27
2022-12-23T13:19:15.155Z,30.37
2022-12-23T13:27:28.667Z,31.13
2022-12-23T13:35:50.213Z,32.10
2022-12-23T13:44:02.341Z,33.95
2022-12-23T13:52:13.846Z,32.05
2022-12-23T14:00:32.297Z,31.42
2022-12-23T14:08:44.954Z,30.80
2022-12-23T14:17:07.112Z,31.30
2022-12-23T14:25:46.734Z,33.00
2022-12-23T14:33:55.057Z,32.72
2022-12-23T14:42:06.107Z,34.88
2022-12-23T14:50:44.184Z,31.30
2022-12-23T14:59:15.649Z,29.63
2022-12-23T15:07:29.118Z,39.20
2022-12-23T15:15:34.777Z,36.08
2022-12-23T15:23:51.464Z,39.65
2022-12-23T15:32:00.171Z,44.10
2022-12-23T15:40:13.248Z,48.63
2022-12-23T15:48:31.106Z,49.15
2022-12-23T15:56:43.991Z,50.70
2022-12-23T16:04:56.269Z,47.90
2022-12-23T16:13:04.375Z,46.33
2022-12-23T16:21:16.926Z,49.65
2022-12-23T16:29:25.454Z,44.83
2022-12-23T16:37:30.844Z,46.78
2022-12-23T16:45:39.850Z,44.97
2022-12-23T16:53:45.493Z,44.15
2022-12-23T17:01:58.175Z,58.08
2022-12-23T17:10:09.552Z,52.58
2022-12-23T17:18:20.268Z,46.80
2022-12-23T17:26:25.567Z,47.20
2022-12-23T17:34:33.679Z,47.88
2022-12-23T17:42:39.049Z,46.20
2022-12-23T17:50:47.622Z,51.30
2022-12-23T17:58:54.166Z,55.70
2022-12-23T18:07:02.236Z,50.33
2022-12-23T18:15:10.546Z,50.03
2022-12-23T18:23:24.209Z,51.83
2022-12-23T18:39:37.935Z,59.65
2022-12-23T18:47:43.297Z,65.00
2022-12-23T18:55:51.824Z,64.03
2022-12-23T19:03:57.746Z,64.63
2022-12-23T19:12:05.948Z,61.90
2022-12-23T19:20:14.457Z,63.95
2022-12-23T19:28:22.373Z,60.03
2022-12-23T19:36:27.781Z,59.40
2022-12-23T19:44:35.865Z,56.15
2022-12-23T19:52:41.591Z,49.95
2022-12-23T20:00:49.760Z,55.65
2022-12-23T20:09:00.271Z,53.22
2022-12-23T20:17:08.898Z,54.03
2022-12-23T20:25:14.337Z,54.92
2022-12-23T20:33:22.433Z,54.92
2022-12-23T20:41:31.338Z,57.10
2022-12-23T20:49:39.545Z,80.03
2022-12-23T20:57:48.922Z,76.72
2022-12-23T21:05:59.689Z,82.75
2022-12-23T21:14:07.173Z,67.90
2022-12-23T21:22:15.554Z,61.42
2022-12-23T21:30:21.620Z,55.13
2022-12-23T21:38:33.120Z,58.20
2022-12-23T21:46:49.345Z,60.28
2022-12-23T21:54:57.458Z,59.85
2022-12-23T22:03:03.276Z,57.58
2022-12-23T22:11:13.659Z,51.72
2022-12-23T22:19:19.700Z,54.03
2022-12-23T22:27:35.079Z,50.67
2022-12-23T22:35:40.919Z,53.78
2022-12-23T22:43:51.003Z,52.80
2022-12-23T22:51:57.699Z,52.20
2022-12-23T23:00:11.909Z,48.85
2022-12-23T23:08:18.172Z,45.42
2022-12-23T23:16:27.381Z,47.30
2022-12-23T23:24:32.814Z,44.85
2022-12-23T23:32:41.093Z,44.10
2022-12-23T23:40:49.559Z,42.13
2022-12-23T23:49:00.305Z,40.83
2022-12-23T23:57:06.118Z,36.15
